Time,TemperatureF,DewpointF,PressureIn,WindDirection,WindDirectionDegrees,WindSpeedMPH,WindSpeedGustMPH,Humidity,HourlyPrecipIn,Conditions,Clouds,dailyrainin,SoftwareType,DateUTC
2014-01-20 06:42:00,52.0,33.0,29.86,SSW,198,0.0,3.0,48,0.00,,,0.01,,2014-01-20 12:42:00,
2014-01-20 06:52:00,52.0,33.0,29.86,SSW,196,0.0,1.0,48,0.00,,,0.01,,2014-01-20 12:52:00,
2014-01-20 07:11:00,52.0,33.0,29.86,SSW,196,0.0,1.0,48,0.00,,,0.01,,2014-01-20 13:11:00,
2014-01-20 07:21:00,52.0,33.0,29.86,SSW,196,0.0,1.0,48,0.00,,,0.01,,2014-01-20 13:21:00,
2014-01-20 08:21:00,51.0,33.0,29.86,South,190,1.0,5.0,50,0.00,,,0.01,,2014-01-20 14:21:00,
2014-01-20 08:41:00,52.0,34.0,29.85,SSW,204,1.0,3.0,50,0.00,,,0.01,,2014-01-20 14:41:00,
2014-01-20 08:52:00,53.0,35.0,29.85,SSW,196,1.0,7.0,50,0.00,,,0.01,,2014-01-20 14:52:00,
2014-01-20 09:21:00,54.0,35.0,29.85,SW,229,2.0,6.0,49,0.00,,,0.01,,2014-01-20 15:21:00,
2014-01-20 09:43:00,56.0,37.0,29.75,SW,214,3.0,12.0,48,0.00,,,0.01,,2014-01-20 15:43:00,
2014-01-20 09:53:00,56.0,37.0,29.75,SW,214,3.0,12.0,48,0.00,,,0.01,,2014-01-20 15:53:00,
2014-01-20 10:12:00,59.0,38.0,29.85,SW,221,2.0,12.0,46,0.00,,,0.01,,2014-01-20 16:12:00,
2014-01-20 10:22:00,60.0,39.0,29.85,SW,234,5.0,9.0,46,0.00,,,0.01,,2014-01-20 16:22:00,
2014-01-20 10:42:00,61.0,41.0,29.85,WSW,249,2.0,12.0,47,0.00,,,0.01,,2014-01-20 16:42:00,
2014-01-20 10:52:00,61.0,41.0,29.85,WSW,249,2.0,12.0,47,0.00,,,0.01,,2014-01-20 16:52:00,
2014-01-20 11:12:00,62.0,40.0,29.73,SW,236,2.0,6.0,45,0.00,,,0.01,,2014-01-20 17:12:00,
2014-01-20 11:22:00,62.0,40.0,29.73,SW,236,2.0,6.0,45,0.00,,,0.01,,2014-01-20 17:22:00,
2014-01-20 11:52:00,65.0,43.0,29.83,SW,219,3.0,6.0,44,0.00,,,0.01,,2014-01-20 17:52:00,
2014-01-20 12:02:00,65.0,43.0,29.83,SW,219,3.0,6.0,44,0.00,,,0.01,,2014-01-20 18:02:00,
2014-01-20 12:21:00,66.0,43.0,29.83,SW,236,3.0,6.0,43,0.00,,,0.01,,2014-01-20 18:21:00,
2014-01-20 12:33:00,66.0,43.0,29.83,SW,236,3.0,6.0,43,0.00,,,0.01,,2014-01-20 18:33:00,
2014-01-20 12:42:00,66.0,43.0,29.83,SW,236,3.0,6.0,43,0.00,,,0.01,,2014-01-20 18:42:00,
2014-01-20 12:52:00,66.0,43.0,29.83,WSW,241,3.0,3.0,43,0.00,,,0.01,,2014-01-20 18:52:00,
2014-01-20 13:22:00,68.0,43.0,29.78,WSW,258,3.0,12.0,41,0.00,,,0.01,,2014-01-20 19:22:00,
2014-01-20 13:32:00,68.0,43.0,29.78,WSW,258,3.0,12.0,41,0.00,,,0.01,,2014-01-20 19:32:00,
2014-01-20 13:42:00,68.0,43.0,29.78,WSW,258,3.0,12.0,41,0.00,,,0.01,,2014-01-20 19:42:00,
2014-01-20 13:52:00,70.0,45.0,29.77,West,267,2.0,6.0,40,0.00,,,0.01,,2014-01-20 19:52:00,
2014-01-20 14:11:00,70.0,45.0,29.77,WNW,297,1.0,6.0,41,0.00,,,0.01,,2014-01-20 20:11:00,
2014-01-20 14:22:00,70.0,45.0,29.77,WNW,297,1.0,6.0,41,0.00,,,0.01,,2014-01-20 20:22:00,
2014-01-20 14:32:00,70.0,45.0,29.77,WNW,297,1.0,6.0,41,0.00,,,0.01,,2014-01-20 20:32:00,
2014-01-20 16:53:00,71.0,40.0,29.80,WNW,288,3.0,7.0,32,0.00,,,0.01,,2014-01-20 22:53:00,
2014-01-20 17:22:00,70.0,38.0,29.83,WNW,299,6.0,12.0,31,0.00,,,0.01,,2014-01-20 23:22:00,
2014-01-20 17:42:00,70.0,38.0,29.83,NW,317,5.0,12.0,31,0.00,,,0.00,,2014-01-20 23:42:00,
2014-01-20 17:52:00,70.0,38.0,29.83,NW,317,5.0,12.0,31,0.00,,,0.00,,2014-01-20 23:52:00,
2014-01-20 18:11:00,68.0,38.0,29.86,NW,318,3.0,7.0,33,0.00,,,0.00,,2014-01-21 00:11:00,
2014-01-20 18:22:00,67.0,37.0,29.61,WNW,300,3.0,6.0,33,0.00,,,0.00,,2014-01-21 00:22:00,
2014-01-20 18:42:00,65.0,36.0,29.90,NW,312,3.0,7.0,34,0.00,,,0.00,,2014-01-21 00:42:00,
2014-01-20 18:52:00,65.0,36.0,29.90,NW,312,3.0,7.0,34,0.00,,,0.00,,2014-01-21 00:52:00,
2014-01-20 19:00:00,65.0,36.0,29.88,NW,315,3.0,6.0,34,0.00,,,0.00,,2014-01-21 01:00:00,
2014-01-20 19:22:00,65.0,36.0,29.88,NW,315,3.0,6.0,34,0.00,,,0.00,,2014-01-21 01:22:00,
2014-01-20 19:32:00,65.0,36.0,29.88,NW,315,3.0,6.0,34,0.00,,,0.00,,2014-01-21 01:32:00,
2014-01-20 19:42:00,65.0,36.0,29.88,NW,315,3.0,6.0,34,0.00,,,0.00,,2014-01-21 01:42:00,
2014-01-20 19:52:00,65.0,36.0,29.88,NW,315,3.0,6.0,34,0.00,,,0.00,,2014-01-21 01:52:00,
2014-01-20 20:42:00,59.0,36.0,29.98,WNW,297,3.0,7.0,42,0.00,,,0.00,,2014-01-21 02:42:00,
2014-01-20 20:52:00,59.0,36.0,29.98,WNW,297,3.0,7.0,42,0.00,,,0.00,,2014-01-21 02:52:00,
2014-01-20 21:01:00,59.0,35.0,29.99,NW,313,3.0,6.0,41,0.00,,,0.00,,2014-01-21 03:01:00,
2014-01-20 21:02:00,59.0,36.0,29.98,WNW,297,3.0,7.0,42,0.00,,,0.00,,2014-01-21 03:02:00,
2014-01-20 21:22:00,59.0,35.0,29.99,NW,313,3.0,6.0,41,0.00,,,0.00,,2014-01-21 03:22:00,
2014-01-20 21:33:00,59.0,35.0,29.99,NW,313,3.0,6.0,41,0.00,,,0.00,,2014-01-21 03:33:00,
2014-01-20 21:43:00,59.0,35.0,29.99,NW,313,3.0,6.0,41,0.00,,,0.00,,2014-01-21 03:43:00,
2014-01-20 21:53:00,59.0,35.0,29.99,NW,313,3.0,6.0,41,0.00,,,0.00,,2014-01-21 03:53:00,
2014-01-20 22:23:00,58.0,33.0,29.99,North,9,5.0,9.0,38,0.00,,,0.00,,2014-01-21 04:23:00,
2014-01-20 22:43:00,57.0,32.0,30.05,West,261,2.0,7.0,39,0.00,,,0.00,,2014-01-21 04:43:00,
2014-01-20 22:52:00,57.0,33.0,30.09,NW,322,5.0,12.0,40,0.00,,,0.00,,2014-01-21 04:52:00,
2014-01-20 23:12:00,56.0,31.0,30.07,NNW,332,3.0,8.0,39,0.00,,,0.00,,2014-01-21 05:12:00,
2014-01-20 23:22:00,56.0,31.0,30.00,NNW,333,6.0,12.0,38,0.00,,,0.00,,2014-01-21 05:22:00,
2014-01-20 23:42:00,56.0,31.0,30.04,West,271,3.0,10.0,38,0.00,,,0.00,,2014-01-21 05:42:00,
2014-01-20 23:52:00,56.0,31.0,30.04,West,271,3.0,10.0,38,0.00,,,0.00,,2014-01-21 05:52:00,